JST,Max TemperatureF,Mean TemperatureF,Min TemperatureF,Max Dew PointF,MeanDew PointF,Min DewpointF,Max Humidity, Mean Humidity, Min Humidity, Max Sea Level PressureIn, Mean Sea Level PressureIn, Min Sea Level PressureIn, Max VisibilityMiles, Mean VisibilityMiles, Min VisibilityMiles, Max Wind SpeedMPH, Mean Wind SpeedMPH, Max Gust SpeedMPH,PrecipitationIn, CloudCover, Events, WindDirDegrees
2013-9-1,71,65,59,61,58,55,88,80,68,29.95,29.87,29.83,6,6,3,14,9,,0.00,6,Rain,164
2013-9-2,71,66,62,61,58,55,82,75,69,29.98,29.95,29.92,6,6,6,14,10,,0.00,6,,171
2013-9-3,68,64,60,64,63,61,100,92,83,30.01,29.98,29.95,6,6,4,7,4,,0.00,6,Rain,229
2013-9-4,68,66,64,64,63,63,100,93,88,29.92,29.88,29.80,6,5,2,7,3,,0.00,6,Rain,305
2013-9-5,75,68,59,64,58,55,94,70,57,29.95,29.82,29.71,6,6,6,17,13,30,0.00,5,Rain,247
2013-9-6,64,62,59,57,55,52,88,77,64,30.09,30.05,30.04,6,6,6,12,4,,0.00,6,,322
2013-9-7,68,62,55,59,57,55,100,87,73,30.12,30.07,30.04,6,6,4,10,4,,0.00,6,Rain,177
2013-9-8,73,66,59,61,59,57,100,81,57,30.01,29.95,29.89,6,6,3,9,3,,0.00,4,Fog,299
2013-9-9,73,65,57,59,57,55,94,74,53,29.98,29.96,29.92,6,6,5,8,3,,0.00,2,,330
2013-9-10,75,65,55,61,58,54,100,74,57,30.04,30.00,29.98,6,6,6,10,4,,0.00,2,Thunderstorm,275
2013-9-11,78,68,59,61,59,55,88,66,54,30.06,30.02,29.98,6,6,6,12,6,,0.00,3,Fog,196
2013-9-12,73,66,60,64,60,57,100,79,61,30.04,30.00,29.98,6,6,6,8,3,,0.00,5,Fog-Rain,258
2013-9-13,75,65,55,59,55,50,94,66,46,30.12,30.04,29.98,6,6,6,8,4,,0.00,1,,165
2013-9-14,77,72,66,72,67,63,88,83,74,29.86,29.79,29.77,6,6,6,16,11,,0.00,6,Rain,198
2013-9-15,71,68,66,66,64,63,94,88,78,29.77,29.73,29.65,6,6,2,18,10,,0.00,6,Rain-Thunderstorm,168
2013-9-16,66,62,57,64,60,55,100,94,88,29.65,29.55,29.42,6,5,3,10,6,,0.00,6,Rain,114
2013-9-17,69,63,57,54,49,45,77,59,40,29.98,29.82,29.74,6,6,6,24,14,39,0.00,3,Rain,250
2013-9-18,66,60,53,52,48,43,94,67,43,30.09,30.04,30.01,6,6,6,15,7,,0.00,5,Rain,245
2013-9-19,64,57,50,50,48,45,88,68,52,30.12,30.08,30.06,6,6,6,9,5,,0.00,3,Fog,204
2013-9-20,68,64,59,57,54,52,77,67,56,29.98,29.87,29.80,6,6,6,22,15,,0.00,4,Rain,179
2013-9-21,69,63,57,59,54,50,77,68,56,29.98,29.89,29.86,6,6,6,12,9,,0.00,3,,291
2013-9-22,64,58,51,52,47,45,100,69,52,30.21,30.13,30.09,6,6,6,12,5,,0.00,3,,346
2013-9-23,69,56,44,52,50,45,100,70,53,30.27,30.16,30.09,6,6,6,14,6,,0.00,2,,204
2013-9-24,68,64,60,57,56,52,82,71,60,29.95,29.85,29.83,6,6,6,23,14,,0.00,5,Rain,180
2013-9-25,55,53,51,55,53,50,100,96,94,29.74,29.68,29.62,6,4,2,14,5,,0.00,6,Rain,341
2013-9-26,60,50,41,46,41,37,100,68,42,29.98,29.86,29.80,6,6,6,12,5,,0.00,2,Fog,319
2013-9-27,59,47,35,45,40,36,100,74,45,30.12,30.07,30.04,6,5,0,7,3,,0.00,3,Fog,157
2013-9-28,68,58,48,48,47,41,82,62,49,30.21,30.17,30.15,6,6,6,13,9,,0.00,1,Fog,183
2013-9-29,69,61,53,52,51,48,82,66,53,30.18,30.15,30.12,6,6,6,15,10,,0.00,3,,175
2013-9-30,64,60,55,57,55,54,94,87,73,30.24,30.23,30.21,6,6,6,8,4,,0.00,6,Rain,177